Flight Track Log - Related Links

Times and Time Zones

All times are in EDT time to prevent confusion due to time zone crossing. See the BAW747 flight status page for this flight to view local times or setup timezone preferences in your user account.


Time Position Orientation Groundspeed Altitude Reporting Facility
EDT Latitude Longitude Course Direction KTS MPH feet Rate Location/Type
Fri 02:26:02 PM 58.8810 5.6380 27° Northeast 134 154 300  Level FlightAware ADS-B
Fri 02:26:27 PM 58.8980 5.6370 358° North 140 161 1,800 3,184 Climbing FlightAware ADS-B
Fri 02:26:51 PM 58.9150 5.6360 358° North 164 189 2,900 2,455 Climbing FlightAware ADS-B
Fri 02:27:11 PM 58.9310 5.6320 353° North 186 214 3,600 2,357 Climbing FlightAware ADS-B
Fri 02:27:19 PM 58.9370 5.6230 322° Northwest 195 224 4,000 2,500 Climbing FlightAware ADS-B
Fri 02:27:23 PM 58.9390 5.6180 308° West 200 230 4,100 2,000 Climbing FlightAware ADS-B
Fri 02:27:31 PM 58.9420 5.6040 293° West 210 242 4,400 2,143 Climbing FlightAware ADS-B
Fri 02:27:37 PM 58.9430 5.5930 280° West 219 252 4,600 2,571 Climbing FlightAware ADS-B
Fri 02:27:59 PM 58.9340 5.5510 247° West 250 288 5,600 3,286 Climbing FlightAware ADS-B
Fri 02:28:19 PM 58.9220 5.5100 240° Southwest 259 298 6,900 4,200 Climbing FlightAware ADS-B
Fri 02:28:39 PM 58.9100 5.4700 240° Southwest 261 300 8,400 4,227 Climbing FlightAware ADS-B
Fri 02:29:03 PM 58.8960 5.4210 241° Southwest 266 306 10,000 3,833 Climbing FlightAware ADS-B
Fri 02:29:15 PM 58.8860 5.3980 230° Southwest 272 313 10,700 2,538 Climbing FlightAware ADS-B
Fri 02:29:29 PM 58.8720 5.3800 214° Southwest 295 339 11,100 2,640 Climbing FlightAware ADS-B
Fri 02:30:05 PM 58.8200 5.3640 189° South 323 372 12,900 3,333 Climbing FlightAware ADS-B
Fri 02:30:41 PM 58.7660 5.3510 187° South 331 381 15,100 3,353 Climbing FlightAware ADS-B
Fri 02:31:13 PM 58.7160 5.3380 188° South 341 392 16,700 3,182 Climbing FlightAware ADS-B
Fri 02:31:47 PM 58.6630 5.3250 187° South 346 398 18,600 3,086 Climbing FlightAware ADS-B
Fri 02:32:23 PM 58.6040 5.3100 188° South 357 411 20,300 2,667 Climbing FlightAware ADS-B
Fri 02:32:59 PM 58.5460 5.2950 188° South 367 422 21,800 2,417 Climbing FlightAware ADS-B
Fri 02:33:35 PM 58.4840 5.2800 187° South 377 434 23,200 2,333 Climbing FlightAware ADS-B
Fri 02:34:11 PM 58.4210 5.2640 188° South 384 442 24,600 2,382 Climbing FlightAware ADS-B
Fri 02:34:43 PM 58.3650 5.2500 187° South 388 447 25,900 2,314 Climbing FlightAware ADS-B
Fri 02:35:21 PM 58.2970 5.2330 187° South 393 452 27,300 2,108 Climbing FlightAware ADS-B
Fri 02:35:57 PM 58.2330 5.2170 187° South 397 457 28,500 1,917 Climbing FlightAware ADS-B
Fri 02:36:33 PM 58.1670 5.2010 187° South 403 464 29,600 1,941 Climbing FlightAware ADS-B
Fri 02:37:05 PM 58.1080 5.1860 188° South 404 465 30,700 1,765 Climbing FlightAware ADS-B
Fri 02:37:41 PM 58.0400 5.1690 188° South 411 473 31,600 1,667 Climbing FlightAware ADS-B
Fri 02:38:17 PM 57.9720 5.1530 187° South 410 472 32,700 1,727 Climbing FlightAware ADS-B
Fri 02:38:47 PM 57.9180 5.1400 187° South 411 473 33,500 1,765 Climbing FlightAware ADS-B
Fri 02:39:25 PM 57.8470 5.1230 187° South 408 470 34,700 1,833 Climbing FlightAware ADS-B
Fri 02:39:59 PM 57.7830 5.1070 188° South 406 467 35,700 1,457 Climbing FlightAware ADS-B
Fri 02:40:35 PM 57.7150 5.0910 187° South 411 473 36,400 1,083 Climbing FlightAware ADS-B
Fri 02:41:11 PM 57.6480 5.0740 188° South 417 480 37,000 857 Climbing FlightAware ADS-B
Fri 02:41:45 PM 57.5810 5.0580 187° South 424 488 37,400 771 Climbing FlightAware ADS-B
Fri 02:42:21 PM 57.5110 5.0420 187° South 428 493 37,900 500 Climbing FlightAware ADS-B
Fri 02:42:57 PM 57.4430 5.0230 189° South 420 483 38,000 88 Climbing FlightAware ADS-B
Fri 02:43:29 PM 57.3820 4.9970 193° South 420 483 38,000  Level FlightAware ADS-B
Fri 02:44:07 PM 57.3120 4.9670 193° South 421 484 38,000  Level FlightAware ADS-B
Fri 02:44:39 PM 57.2500 4.9400 193° South 423 487 38,000  Level FlightAware ADS-B
Fri 02:45:13 PM 57.1840 4.9120 193° South 424 488 38,000  Level FlightAware ADS-B
Fri 02:45:47 PM 57.1190 4.8840 193° South 422 486 38,000  Level FlightAware ADS-B
Fri 02:46:28 PM 57.0450 4.8530 193° South 419 482 38,000  Level FlightAware ADS-B
Fri 02:46:59 PM 56.9860 4.8280 193° South 418 481 38,000  Level FlightAware ADS-B
Fri 02:47:36 PM 56.9140 4.7980 193° South 415 478 38,000  Level FlightAware ADS-B
Fri 02:48:12 PM 56.8470 4.7690 193° South 417 480 38,000  Level FlightAware ADS-B
Fri 02:48:42 PM 56.7920 4.7460 193° South 421 484 38,000  Level FlightAware ADS-B
Fri 02:49:21 PM 56.7150 4.7140 193° South 423 487 38,000  Level FlightAware ADS-B
Fri 02:49:55 PM 56.6474 4.6853 193° South 1 1 38,000  Level FlightAware UK
Fri 02:49:56 PM 56.6500 4.6870 193° South 423 487 38,000  Level FlightAware ADS-B
Fri 02:50:27 PM 56.5900 4.6620 193° South 423 487 38,000  Level FlightAware ADS-B
Fri 02:51:07 PM 56.5130 4.6300 193° South 422 486 38,000  Level FlightAware ADS-B
Fri 02:51:42 PM 56.4470 4.6030 193° South 418 481 38,000  Level FlightAware ADS-B
Fri 02:52:15 PM 56.3870 4.5780 193° South 416 479 38,000  Level FlightAware ADS-B
Fri 02:52:52 PM 56.3160 4.5500 192° South 413 475 38,000  Level FlightAware ADS-B
Fri 02:53:25 PM 56.2530 4.5240 193° South 414 476 38,000  Level FlightAware ADS-B
Fri 02:54:02 PM 56.1850 4.4960 193° South 416 479 38,000  Level FlightAware ADS-B
Fri 02:54:35 PM 56.1240 4.4710 193° South 419 482 38,000  Level FlightAware ADS-B
Fri 02:55:10 PM 56.0580 4.4450 192° South 418 481 38,000  Level FlightAware ADS-B
Fri 02:55:42 PM 55.9970 4.4200 193° South 417 480 38,000  Level FlightAware ADS-B
Fri 02:56:23 PM 55.9190 4.3890 193° South 417 480 38,000  Level FlightAware ADS-B
Fri 02:56:54 PM 55.8650 4.3670 193° South 415 478 38,000  Level FlightAware ADS-B
Fri 02:57:29 PM 55.8010 4.3420 192° South 412 474 38,000  Level FlightAware ADS-B
Fri 02:57:59 PM 55.7440 4.3200 192° South 410 472 38,000  Level FlightAware ADS-B
Fri 02:58:39 PM 55.6710 4.2900 193° South 408 470 38,000  Level FlightAware ADS-B
Fri 02:59:09 PM 55.6160 4.2690 192° South 408 470 38,000  Level FlightAware ADS-B
Fri 02:59:48 PM 55.5450 4.2410 193° South 410 472 38,000  Level FlightAware ADS-B
Fri 03:00:23 PM 55.4770 4.2140 193° South 412 474 38,000  Level FlightAware ADS-B
Fri 03:00:59 PM 55.4170 4.1910 192° South 414 476 38,000  Level FlightAware ADS-B
Fri 03:01:34 PM 55.3460 4.1630 193° South 415 478 38,000  Level FlightAware ADS-B
Fri 03:02:11 PM 55.2850 4.1390 193° South 414 476 38,000  Level FlightAware ADS-B
Fri 03:02:44 PM 55.2150 4.1120 192° South 414 476 38,000  Level FlightAware ADS-B
Fri 03:03:19 PM 55.1550 4.0890 192° South 413 475 38,000  Level FlightAware ADS-B
Fri 03:03:54 PM 55.0880 4.0640 192° South 410 472 38,000  Level FlightAware ADS-B
Fri 03:03:55 PM 55.0771 4.0596 192° South 452 520 38,000  Level FlightAware UK
Fri 03:04:25 PM 55.0214 4.0387 192° South 450 518 38,000  Level FlightAware UK
Fri 03:04:29 PM 55.0210 4.0380 192° South 399 459 38,000  Level FlightAware ADS-B
Fri 03:05:04 PM 54.9570 4.0140 192° South 399 459 38,000  Level FlightAware ADS-B
Fri 03:05:39 PM 54.8910 3.9890 192° South 399 459 38,000  Level FlightAware ADS-B
Fri 03:06:21 PM 54.8220 3.9620 193° South 399 459 38,000  Level FlightAware ADS-B
Fri 03:06:54 PM 54.7540 3.9360 192° South 398 458 38,000  Level FlightAware ADS-B
Fri 03:07:29 PM 54.6920 3.9130 192° South 398 458 38,000  Level FlightAware ADS-B
Fri 03:07:31 PM 54.6815 3.9088 192° South 454 522 38,000  Level FlightAware UK
Fri 03:08:01 PM 54.6265 3.8884 192° South 454 522 38,000  Level FlightAware UK
Fri 03:08:09 PM 54.6210 3.8870 192° South 398 458 38,000  Level FlightAware ADS-B
Fri 03:08:49 PM 54.5440 3.8580 192° South 398 458 38,000  Level FlightAware ADS-B
Fri 03:09:19 PM 54.4900 3.8380 192° South 398 458 38,000  Level FlightAware ADS-B
Fri 03:09:49 PM 54.4287 3.8152 192° South 452 520 38,000  Level FlightAware UK
Fri 03:09:59 PM 54.4170 3.8110 192° South 396 456 38,000  Level FlightAware ADS-B
Fri 03:10:34 PM 54.3540 3.7880 192° South 394 453 38,000  Level FlightAware ADS-B
Fri 03:11:09 PM 54.2900 3.7640 192° South 392 451 38,000  Level FlightAware ADS-B
Fri 03:11:40 PM 54.2390 3.7460 192° South 392 451 38,000  Level FlightAware ADS-B
Fri 03:12:14 PM 54.1800 3.7240 192° South 393 452 38,000  Level FlightAware ADS-B
Fri 03:12:55 PM 54.0916 3.6916 192° South 454 522 38,000  Level FlightAware UK
Fri 03:12:59 PM 54.0920 3.6920 192° South 396 456 38,000  Level FlightAware ADS-B
Fri 03:13:31 PM 54.0265 3.6677 192° South 456 525 38,000  Level FlightAware UK
Fri 03:13:39 PM 54.0270 3.6680 192° South 398 458 38,000  Level FlightAware ADS-B
Fri 03:14:19 PM 53.9420 3.6370 192° South 396 456 38,000  Level FlightAware ADS-B
Fri 03:14:54 PM 53.8800 3.6150 192° South 393 452 38,000  Level FlightAware ADS-B
Fri 03:15:34 PM 53.8100 3.5900 192° South 397 457 38,000  Level FlightAware ADS-B
Fri 03:16:09 PM 53.7460 3.5670 192° South 392 451 38,000  Level FlightAware ADS-B
Fri 03:16:34 PM 53.6990 3.5500 192° South 395 455 38,000  Level FlightAware ADS-B
Fri 03:17:10 PM 53.6360 3.5260 193° South 403 464 38,000  Level FlightAware ADS-B
Fri 03:17:50 PM 53.5650 3.4810 201° Southwest 392 451 38,000  Level FlightAware ADS-B
Fri 03:18:20 PM 53.5150 3.4390 207° Southwest 399 459 38,000  Level FlightAware ADS-B
Fri 03:19:00 PM 53.4490 3.3820 207° Southwest 397 457 38,000  Level FlightAware ADS-B
Fri 03:19:30 PM 53.4060 3.3460 207° Southwest 396 456 38,000  Level FlightAware ADS-B
Fri 03:20:07 PM 53.3390 3.2890 207° Southwest 395 455 38,000  Level FlightAware ADS-B
Fri 03:20:39 PM 53.2890 3.2460 207° Southwest 395 455 38,000  Level FlightAware ADS-B
Fri 03:20:43 PM 53.2782 3.2370 207° Southwest 450 518 38,000  Level FlightAware UK
Fri 03:21:13 PM 53.2290 3.1953 207° Southwest 454 522 38,000  Level FlightAware UK
Fri 03:21:21 PM 53.2220 3.1890 207° Southwest 396 456 38,000  Level FlightAware ADS-B
Fri 03:21:51 PM 53.1730 3.1480 207° Southwest 394 453 38,000  Level FlightAware ADS-B
Fri 03:22:27 PM 53.1130 3.0970 207° Southwest 391 450 38,000  Level FlightAware ADS-B
Fri 03:23:01 PM 53.0620 3.0540 207° Southwest 389 448 38,000  Level FlightAware ADS-B
Fri 03:23:37 PM 52.9968 2.9998 207° Southwest 446 513 38,000  Level FlightAware UK
Fri 03:23:38 PM 52.9980 3.0000 207° Southwest 389 448 38,000  Level FlightAware ADS-B
Fri 03:24:15 PM 52.9400 2.9510 207° Southwest 389 448 38,000  Level FlightAware ADS-B
Fri 03:24:46 PM 52.8910 2.9110 206° Southwest 392 451 38,000 -375 Level FlightAware ADS-B
Fri 03:25:19 PM 52.8334 2.8627 206° Southwest 448 516 37,600 -649 Descending FlightAware UK
Fri 03:25:23 PM 52.8300 2.8600 206° Southwest 385 443 37,600 -1,667 Level FlightAware ADS-B
Fri 03:25:55 PM 52.7757 2.8164 206° Southwest 448 516 36,600 -1,636 Descending FlightAware UK
Fri 03:25:56 PM 52.7790 2.8190 206° Southwest 374 430 36,700 -2,167 Climbing FlightAware ADS-B
Fri 03:26:31 PM 52.7250 2.7740 207° Southwest 370 426 35,300 -2,842 Descending FlightAware ADS-B
Fri 03:27:12 PM 52.6650 2.7240 207° Southwest 377 434 33,100 -2,923 Descending FlightAware ADS-B
Fri 03:27:49 PM 52.6009 2.6729 207° Southwest 436 502 31,500 -2,368 Descending FlightAware UK
Fri 03:27:50 PM 52.6040 2.6760 207° Southwest 370 426 31,600 -1,714 Climbing FlightAware ADS-B
Fri 03:28:24 PM 52.5500 2.6330 206° Southwest 369 425 30,500 -1,391 Descending FlightAware ADS-B
Fri 03:28:59 PM 52.4960 2.5910 205° Southwest 360 414 30,000 -417 Descending FlightAware ADS-B
Fri 03:29:36 PM 52.4400 2.5480 205° Southwest 364 419 30,000  Level FlightAware ADS-B
Fri 03:30:09 PM 52.3900 2.5090 205° Southwest 371 427 30,000  Level FlightAware ADS-B
Fri 03:30:43 PM 52.3345 2.4672 205° Southwest 436 502 30,000  Level FlightAware UK
Fri 03:30:43 PM 52.3350 2.4680 205° Southwest 372 428 30,000  Level FlightAware ADS-B
Fri 03:31:13 PM 52.2879 2.4313 205° Southwest 430 495 30,000  Level FlightAware UK
Fri 03:31:20 PM 52.2790 2.4250 205° Southwest 366 421 30,000  Level FlightAware ADS-B
Fri 03:31:51 PM 52.2320 2.3890 205° Southwest 364 419 30,000  Level FlightAware ADS-B
Fri 03:32:11 PM 52.2030 2.3630 209° Southwest 361 415 30,000  Level FlightAware ADS-B
Fri 03:32:23 PM 52.1856 2.3416 217° Southwest 361 415 30,000  Level FlightAware ADS-B
Fri 03:32:59 PM 52.1391 2.2822 218° Southwest 363 418 30,000 -225 Level FlightAware ADS-B
Fri 03:33:43 PM 52.0793 2.2063 218° Southwest 424 488 29,700 -566 Descending FlightAware UK
Fri 03:33:52 PM 52.0690 2.1930 218° Southwest 360 414 29,500 -913 Descending FlightAware ADS-B
Fri 03:34:29 PM 52.0220 2.1320 219° Southwest 355 409 29,000 -1,000 Descending FlightAware ADS-B
Fri 03:35:04 PM 51.9830 2.0630 227° Southwest 354 407 28,300 -1,147 Descending FlightAware ADS-B
Fri 03:35:37 PM 51.9475 1.9939 227° Southwest 412 474 27,700 -1,105 Descending FlightAware UK
Fri 03:35:42 PM 51.9430 1.9850 227° Southwest 351 404 27,600 -1,105 Descending FlightAware ADS-B
Fri 03:36:15 PM 51.9090 1.9200 230° Southwest 351 404 27,000 -1,017 Descending FlightAware ADS-B
Fri 03:36:41 PM 51.8816 1.8677 230° Southwest 348 400 26,600 -1,219 Descending FlightAware ADS-B
Fri 03:37:19 PM 51.8411 1.7903 230° Southwest 400 460 25,700 -1,333 Descending FlightAware UK
Fri 03:37:26 PM 51.8345 1.7776 230° Southwest 349 402 25,600 -714 Descending FlightAware ADS-B
Fri 03:38:01 PM 51.7990 1.7110 229° Southwest 343 395 25,200 -837 Descending FlightAware ADS-B
Fri 03:38:09 PM 51.7898 1.6926 231° Southwest 349 402 25,000 -1,660 Descending FlightAware ADS-B
Fri 03:38:48 PM 51.7534 1.6159 233° Southwest 343 395 23,900 -2,066 Descending FlightAware ADS-B
Fri 03:39:10 PM 51.7447 1.5602 256° West 352 405 22,900 -2,423 Descending FlightAware ADS-B
Fri 03:39:40 PM 51.7395 1.4819 264° West 349 402 21,800 -2,100 Descending FlightAware ADS-B
Fri 03:40:10 PM 51.7345 1.4050 264° West 342 394 20,800 -2,000 Descending FlightAware ADS-B
Fri 03:40:40 PM 51.7295 1.3295 264° West 336 387 19,800 -2,031 Descending FlightAware ADS-B
Fri 03:41:15 PM 51.7239 1.2432 264° West 328 377 18,600 -2,060 Descending FlightAware ADS-B
Fri 03:41:47 PM 51.7188 1.1666 264° West 326 375 17,500 -2,057 Descending FlightAware ADS-B
Fri 03:42:25 PM 51.7127 1.0759 264° West 320 368 16,200 -2,057 Descending FlightAware ADS-B
Fri 03:42:57 PM 51.7075 1.0009 264° West 316 364 15,100 -2,000 Descending FlightAware ADS-B
Fri 03:43:28 PM 51.7025 0.9295 264° West 312 359 14,100 -1,667 Descending FlightAware ADS-B
Fri 03:44:09 PM 51.6961 0.8360 264° West 310 357 13,100 -1,187 Descending FlightAware ADS-B
Fri 03:44:59 PM 51.6880 0.7260 263° West 297 342 12,300 -1,091 Descending FlightAware ADS-B (CYTZ)
Fri 03:45:26 PM 51.6840 0.6635 264° West 295 339 11,700 -1,099 Descending FlightAware ADS-B
Fri 03:46:10 PM 51.6776 0.5737 263° West 275 316 11,000 -1,054 Descending FlightAware ADS-B
Fri 03:46:40 PM 51.6730 0.5117 263° West 274 315 10,400 -800 Descending FlightAware ADS-B
Fri 03:47:10 PM 51.6687 0.4508 264° West 274 315 10,200 -295 Descending FlightAware ADS-B
Fri 03:47:41 PM 51.6640 0.3896 263° West 275 316 10,100 -197 Descending FlightAware ADS-B
Fri 03:48:11 PM 51.6595 0.3285 263° West 275 316 10,000 -98 Descending FlightAware ADS-B
Fri 03:48:42 PM 51.6549 0.2675 263° West 256 295 10,000  Level FlightAware ADS-B
Fri 03:49:13 PM 51.6507 0.2111 263° West 243 280 10,000  Level FlightAware ADS-B
Fri 03:49:28 PM 51.6487 0.1830 263° West 244 281 10,000  Level FlightAware ADS-B
Fri 03:49:33 PM 51.6485 0.1754 268° West 242 278 10,000 -900 Level FlightAware ADS-B
Fri 03:49:48 PM 51.6483 0.1471 269° West 242 278 9,700 -938 Descending FlightAware ADS-B
Fri 03:50:05 PM 51.6481 0.1177 269° West 240 276 9,500 -938 Descending FlightAware ADS-B
Fri 03:50:20 PM 51.6480 0.0908 270° West 238 274 9,200 -968 Descending FlightAware ADS-B
Fri 03:50:36 PM 51.6478 0.0627 269° West 230 265 9,000 -938 Descending FlightAware ADS-B
Fri 03:50:52 PM 51.6475 0.0360 269° West 227 261 8,700 -1,161 Descending FlightAware ADS-B
Fri 03:51:07 PM 51.6471 0.0104 269° West 227 261 8,400 -1,161 Descending FlightAware ADS-B
Fri 03:51:23 PM 51.6466 -0.0171 268° West 229 264 8,100 -909 Descending FlightAware ADS-B
Fri 03:51:40 PM 51.6460 -0.0447 268° West 230 265 7,900 -923 Descending FlightAware ADS-B
Fri 03:51:49 PM 51.6455 -0.0604 267° West 230 265 7,700 -923 Descending FlightAware ADS-B
Fri 03:51:53 PM 51.6451 -0.0672 265° West 231 266 7,700 -857 Level FlightAware ADS-B
Fri 03:51:56 PM 51.6442 -0.0732 256° West 232 267 7,600 -600 Descending FlightAware ADS-B
Fri 03:52:03 PM 51.6413 -0.0835 246° West 233 268 7,600 -500 Level FlightAware ADS-B
Fri 03:52:08 PM 51.6382 -0.0902 233° Southwest 234 269 7,500 -1,200 Descending FlightAware ADS-B
Fri 03:52:13 PM 51.6343 -0.0960 223° Southwest 238 274 7,400 -1,333 Descending FlightAware ADS-B
Fri 03:52:17 PM 51.6298 -0.1006 212° Southwest 241 277 7,300 -1,500 Descending FlightAware ADS-B
Fri 03:52:21 PM 51.6259 -0.1033 204° Southwest 242 278 7,200 -750 Descending FlightAware ADS-B
Fri 03:52:25 PM 51.6219 -0.1053 197° South 244 281 7,200 -857 Level FlightAware ADS-B
Fri 03:52:28 PM 51.6183 -0.1062 189° South 245 282 7,100 -857 Descending FlightAware ADS-B
Fri 03:52:32 PM 51.6140 -0.1064 182° South 247 284 7,100 -750 Level FlightAware ADS-B
Fri 03:52:36 PM 51.6094 -0.1057 174° South 249 287 7,000 -1,333 Descending FlightAware ADS-B
Fri 03:52:41 PM 51.6038 -0.1034 166° South 250 288 6,900 -1,200 Descending FlightAware ADS-B
Fri 03:52:46 PM 51.5985 -0.0995 155° Southeast 253 291 6,800 -750 Descending FlightAware ADS-B
Fri 03:52:49 PM 51.5955 -0.0964 148° Southeast 253 291 6,800 -857 Level FlightAware ADS-B
Fri 03:52:53 PM 51.5919 -0.0917 141° Southeast 256 295 6,700 -750 Descending FlightAware ADS-B
Fri 03:52:57 PM 51.5888 -0.0865 134° Southeast 257 296 6,700 -857 Level FlightAware ADS-B
Fri 03:53:00 PM 51.5860 -0.0812 131° Southeast 258 297 6,600 -900 Descending FlightAware ADS-B
Fri 03:53:17 PM 51.5741 -0.0558 127° Southeast 260 299 6,400 -938 Descending FlightAware ADS-B
Fri 03:53:32 PM 51.5633 -0.0320 126° Southeast 260 299 6,100 -923 Descending FlightAware ADS-B
Fri 03:53:43 PM 51.5557 -0.0155 126° Southeast 254 292 6,000 -429 Descending FlightAware ADS-B
Fri 03:53:46 PM 51.5533 -0.0105 128° Southeast 251 289 6,000 -857 Level FlightAware ADS-B
Fri 03:53:50 PM 51.5504 -0.0058 134° Southeast 249 287 5,900 -667 Descending FlightAware ADS-B
Fri 03:53:55 PM 51.5459 -0.0002 142° Southeast 244 281 5,900  Level FlightAware ADS-B
Fri 03:53:58 PM 51.5430 0.0025 150° Southeast 241 277 5,900 -750 Level FlightAware ADS-B
Fri 03:54:03 PM 51.5373 0.0062 158° South 235 270 5,800 -923 Descending FlightAware ADS-B
Fri 03:54:11 PM 51.5292 0.0082 171° South 228 262 5,700 -400 Descending FlightAware ADS-B
Fri 03:54:18 PM 51.5220 0.0086 178° South 220 253 5,700 -300 Level FlightAware ADS-B
Fri 03:54:31 PM 51.5091 0.0087 180° South 211 243 5,600 -600 Descending FlightAware ADS-B
Fri 03:54:38 PM 51.5026 0.0068 191° South 204 235 5,500 -500 Descending FlightAware ADS-B
Fri 03:54:43 PM 51.4991 0.0043 203° Southwest 197 227 5,500 -750 Level FlightAware ADS-B
Fri 03:54:46 PM 51.4966 0.0019 211° Southwest 195 224 5,400 -1,000 Descending FlightAware ADS-B
Fri 03:54:49 PM 51.4940 -0.0016 220° Southwest 193 222 5,400 -857 Level FlightAware ADS-B
Fri 03:54:53 PM 51.4921 -0.0049 227° Southwest 192 221 5,300 -1,714 Descending FlightAware ADS-B
Fri 03:54:56 PM 51.4905 -0.0080 230° Southwest 191 220 5,200 -1,000 Descending FlightAware ADS-B
Fri 03:55:05 PM 51.4858 -0.0187 235° Southwest 188 216 5,100 -1,000 Descending FlightAware ADS-B
Fri 03:55:20 PM 51.4784 -0.0357 235° Southwest 185 213 4,800 -960 Descending FlightAware ADS-B
Fri 03:55:30 PM 51.4736 -0.0467 235° Southwest 184 212 4,700 -857 Descending FlightAware ADS-B
Fri 03:55:34 PM 51.4720 -0.0511 240° Southwest 183 211 4,600 -857 Descending FlightAware ADS-B
Fri 03:55:37 PM 51.4709 -0.0549 245° Southwest 181 208 4,600 -857 Level FlightAware ADS-B
Fri 03:55:41 PM 51.4695 -0.0611 250° West 180 207 4,500 -667 Descending FlightAware ADS-B
Fri 03:55:46 PM 51.4684 -0.0667 252° West 179 206 4,500 -600 Level FlightAware ADS-B
Fri 03:55:51 PM 51.4675 -0.0734 258° West 180 207 4,400 -1,200 Descending FlightAware ADS-B
Fri 03:55:56 PM 51.4669 -0.0798 261° West 181 208 4,300 -750 Descending FlightAware ADS-B
Fri 03:56:07 PM 51.4661 -0.0943 265° West 182 209 4,200 -923 Descending FlightAware ADS-B
Fri 03:56:22 PM 51.4657 -0.1144 268° West 182 209 3,900 -1,000 Descending FlightAware ADS-B
Fri 03:56:31 PM 51.4656 -0.1266 269° West 183 211 3,800 -1,000 Descending FlightAware ADS-B
Fri 03:56:46 PM 51.4656 -0.1469 270° West 183 211 3,500 -1,161 Descending FlightAware ADS-B
Fri 03:57:02 PM 51.4656 -0.1686 270° West 184 212 3,200 -968 Descending FlightAware ADS-B
Fri 03:57:17 PM 51.4655 -0.1887 270° West 179 206 3,000 -1,000 Descending FlightAware ADS-B
Fri 03:57:32 PM 51.4655 -0.2083 270° West 175 201 2,700 -1,000 Descending FlightAware ADS-B
Fri 03:57:47 PM 51.4655 -0.2283 270° West 169 194 2,500 -800 Descending FlightAware ADS-B
Fri 03:58:02 PM 51.4655 -0.2467 270° West 164 189 2,300 -727 Descending FlightAware ADS-B
Fri 03:58:20 PM 51.4654 -0.2678 270° West 160 184 2,100 -842 Descending FlightAware ADS-B
Fri 03:58:59 PM 51.4653 -0.3135 270° West 166 191 1,500 -857 Descending FlightAware UK
Fri 03:59:02 PM 51.4650 -0.3120 270° West 149 171 1,500 -643 Level FlightAware ADS-B
Fri 03:59:27 PM 51.4650 -0.3380 270° West 121 139 1,200 -667 Descending FlightAware ADS-B
Fri 03:59:47 PM 51.4650 -0.3560 270° West 115 132 1,000 -600 Descending FlightAware ADS-B
Fri 04:00:07 PM 51.4650 -0.3710 270° West 117 135 800 -533 Descending FlightAware ADS-B
Fri 04:00:32 PM 51.4650 -0.3940 270° West 117 135 600 -667 Descending FlightAware ADS-B
Fri 04:00:52 PM 51.4650 -0.4120 270° West 119 137 300 -714 Descending FlightAware ADS-B
Fri 04:01:14 PM 51.4650 -0.4290 270° West 121 139 100 -545 Descending FlightAware ADS-B
Fri 04:01:31 PM 51.4650 -0.4320 270° West 121 139 -353 Descending FlightAware ADS-B
Fri 04:01:57 PM 51.4650 -0.4520 270° West 121 139  Level FlightAware ADS-B
Fri 04:02:16 PM 51.4660 -0.4590 283° West 119 137  Level FlightAware ADS-B
Fri 04:02:41 PM 51.4610 -0.4420 115° Southeast 119 137  Level FlightAware ADS-B

Login

Don't have an account? Register now (free) for customized features, flight alerts, and more!